Time;durP1;ratioP1;P1;durP2;ratioP2;P2;SDS_P1;SDS_P2;PMS_P1;PMS_P2;Temp;Humidity;BMP_temperature;BMP_pressure;BME280_temperature;BME280_humidity;BME280_pressure;Samples;Min_cycle;Max_cycle;Signal;HPM_P1;HPM_P2
2021/01/06 00:02:09;;;;;;;41.72;19.20;;;;;;;0.60;92.91;95854.09;5028175;28;20053;-77
2021/01/06 00:04:39;;;;;;;44.95;19.85;;;;;;;0.61;92.68;95853.13;5030353;28;20057;-77
2021/01/06 00:07:05;;;;;;;44.30;20.52;;;;;;;0.62;92.83;95849.56;5029198;28;20062;-77
2021/01/06 00:09:58;;;;;;;50.78;21.52;;;;;;;0.63;92.74;95858.09;5045701;28;20057;-77
2021/01/06 00:12:36;;;;;;;47.80;21.15;;;;;;;0.60;92.72;95848.94;5048973;28;20053;-77
2021/01/06 00:15:24;;;;;;;41.33;19.98;;;;;;;0.59;92.62;95850.72;5040563;28;20053;-77
2021/01/06 00:18:13;;;;;;;51.83;21.15;;;;;;;0.57;92.71;95855.25;5045672;28;20442;-77
2021/01/06 00:20:51;;;;;;;;;;;;;;;0.54;92.95;95854.78;5027991;28;20036;-77
2021/01/06 00:24:03;;;;;;;54.72;22.33;;;;;;;0.48;92.82;95852.88;5049864;28;19916;-77
2021/01/06 00:26:36;;;;;;;52.88;21.17;;;;;;;0.44;92.92;95854.19;5020325;28;20057;-77
2021/01/06 00:29:23;;;;;;;42.80;20.42;;;;;;;0.42;92.99;95846.63;5047866;28;20477;-77
2021/01/06 00:32:17;;;;;;;;;;;;;;;;;;;;;
2021/01/06 00:35:05;;;;;;;46.65;19.95;;;;;;;0.37;93.03;95844.53;5036965;28;20059;-77
2021/01/06 00:37:47;;;;;;;43.58;19.77;;;;;;;0.35;93.17;95848.25;5024473;28;20076;-77
2021/01/06 00:41:07;;;;;;;44.03;20.95;;;;;;;0.33;93.00;95845.03;5016687;28;20064;-78
2021/01/06 00:44:24;;;;;;;41.30;19.55;;;;;;;0.33;93.47;95847.63;5010236;28;20049;-77
2021/01/06 00:46:53;;;;;;;47.30;21.67;;;;;;;0.33;93.57;95840.69;5015800;28;20052;-77
2021/01/06 00:49:28;;;;;;;41.85;19.52;;;;;;;0.34;93.39;95841.50;5009143;28;20048;-83
2021/01/06 00:52:02;;;;;;;44.90;20.40;;;;;;;0.35;93.42;95846.47;5039732;28;20044;-77
2021/01/06 00:54:36;;;;;;;48.00;22.27;;;;;;;0.33;93.28;95848.41;5023823;28;20413;-77
2021/01/06 00:57:06;;;;;;;;;;;;;;;0.30;93.62;95848.78;5042376;28;20045;-77
2021/01/06 00:59:58;;;;;;;47.35;21.00;;;;;;;0.24;93.46;95848.66;5038003;28;20270;-77
2021/01/06 01:02:24;;;;;;;56.10;23.02;;;;;;;0.22;93.65;95850.59;5010979;28;20037;-77
2021/01/06 01:04:53;;;;;;;67.30;24.40;;;;;;;0.20;93.44;95845.59;5026059;28;20049;-77
2021/01/06 01:07:22;;;;;;;55.83;23.65;;;;;;;0.16;93.42;95849.47;5058820;28;20073;-77
2021/01/06 01:09:48;;;;;;;52.42;24.63;;;;;;;0.11;93.54;95844.81;5048294;28;20057;-77
2021/01/06 01:12:18;;;;;;;50.38;23.65;;;;;;;0.08;93.53;95852.06;5035813;28;20398;-77
2021/01/06 01:14:50;;;;;;;51.35;24.40;;;;;;;0.06;93.53;95857.38;5051067;28;20056;-77
2021/01/06 01:17:17;;;;;;;50.90;24.45;;;;;;;0.09;93.70;95853.69;5015968;28;20393;-77
2021/01/06 01:19:44;;;;;;;54.53;24.33;;;;;;;0.09;93.39;95858.84;5026562;28;20061;-77
2021/01/06 01:22:10;;;;;;;59.20;24.00;;;;;;;0.04;93.40;95861.09;5046588;28;20048;-77
2021/01/06 01:24:39;;;;;;;57.45;23.05;;;;;;;0.00;93.26;95863.25;5025914;28;20057;-77
2021/01/06 01:27:06;;;;;;;46.08;21.20;;;;;;;-0.02;93.44;95871.13;5053752;28;20406;-78
2021/01/06 01:29:32;;;;;;;50.70;23.13;;;;;;;-0.03;93.40;95869.50;5044393;28;20548;-83
2021/01/06 01:31:58;;;;;;;52.53;22.08;;;;;;;-0.03;93.32;95866.94;5045458;28;20045;-77
2021/01/06 01:34:24;;;;;;;54.50;23.17;;;;;;;0.02;93.54;95875.94;5047260;28;20044;-77
2021/01/06 01:36:51;;;;;;;54.20;22.77;;;;;;;0.05;93.60;95860.94;5037425;28;20053;-77
2021/01/06 01:39:19;;;;;;;47.90;20.98;;;;;;;0.08;93.27;95870.13;5018996;28;20037;-77
2021/01/06 01:41:46;;;;;;;51.67;22.65;;;;;;;0.11;93.49;95867.22;5043931;28;20153;-77
2021/01/06 01:44:13;;;;;;;49.75;22.15;;;;;;;0.13;93.19;95868.66;5049640;28;20093;-77
2021/01/06 01:47:00;;;;;;;53.95;23.05;;;;;;;0.16;93.06;95862.34;5048411;28;20056;-77
2021/01/06 01:49:39;;;;;;;43.55;20.90;;;;;;;0.14;92.71;95872.84;5024731;28;20056;-77
2021/01/06 01:52:17;;;;;;;41.10;20.20;;;;;;;0.10;92.60;95868.19;5049942;28;20045;-76
2021/01/06 01:54:43;;;;;;;46.88;20.33;;;;;;;0.05;92.78;95868.69;5028445;28;20053;-77
2021/01/06 01:57:16;;;;;;;47.33;21.30;;;;;;;0.02;92.59;95874.16;5030627;28;20045;-77
2021/01/06 01:59:57;;;;;;;44.33;20.42;;;;;;;0.00;92.82;95865.81;5046994;28;20053;-76
2021/01/06 02:02:35;;;;;;;46.03;21.50;;;;;;;0.01;92.83;95874.34;5044404;28;20501;-76
2021/01/06 02:05:07;;;;;;;41.88;18.70;;;;;;;-0.01;92.82;95872.72;5048053;28;20057;-76
2021/01/06 02:07:39;;;;;;;38.55;19.15;;;;;;;-0.03;92.90;95861.78;5050459;28;20049;-76
2021/01/06 02:10:27;;;;;;;42.95;19.75;;;;;;;-0.02;92.85;95860.81;5049503;28;20071;-76
2021/01/06 02:13:00;;;;;;;43.00;18.95;;;;;;;-0.01;92.95;95865.00;5045689;28;20059;-77
2021/01/06 02:15:34;;;;;;;42.08;20.30;;;;;;;-0.03;93.02;95851.47;5047202;28;20056;-82
2021/01/06 02:18:00;;;;;;;36.45;17.85;;;;;;;-0.04;92.55;95856.81;5048453;28;20050;-76
2021/01/06 02:20:27;;;;;;;39.83;18.40;;;;;;;-0.06;92.73;95856.97;5031835;28;20512;-77
2021/01/06 02:22:56;;;;;;;41.13;18.35;;;;;;;-0.09;92.74;95859.84;5050532;28;20045;-76
2021/01/06 02:25:25;;;;;;;37.80;18.05;;;;;;;-0.12;92.59;95844.75;5042395;28;20056;-77
2021/01/06 02:27:52;;;;;;;40.90;19.63;;;;;;;-0.14;92.67;95849.25;5030782;28;20037;-76
2021/01/06 02:30:19;;;;;;;40.53;19.50;;;;;;;-0.16;92.83;95848.63;5046001;28;20048;-78
2021/01/06 02:32:45;;;;;;;39.20;18.20;;;;;;;-0.16;92.72;95845.25;5056162;28;20384;-77
2021/01/06 02:35:13;;;;;;;39.78;17.77;;;;;;;-0.16;92.56;95842.66;5029583;28;20053;-81
2021/01/06 02:37:40;;;;;;;36.38;17.02;;;;;;;-0.19;92.59;95848.94;5050283;28;20038;-77
2021/01/06 02:40:09;;;;;;;34.35;17.13;;;;;;;-0.22;92.52;95847.50;5031175;28;20470;-77
2021/01/06 02:42:36;;;;;;;36.10;16.75;;;;;;;-0.25;92.47;95850.41;5053970;28;20048;-77
2021/01/06 02:45:14;;;;;;;39.40;17.10;;;;;;;-0.27;92.78;95852.34;5051163;28;20400;-77
2021/01/06 02:47:43;;;;;;;36.17;16.55;;;;;;;-0.25;92.83;95850.41;5042579;28;20056;-76
2021/01/06 02:50:13;;;;;;;34.38;16.98;;;;;;;-0.23;92.63;95853.63;5024842;28;20440;-77
2021/01/06 02:53:02;;;;;;;34.70;16.45;;;;;;;-0.23;92.62;95853.63;5023883;28;20049;-76
2021/01/06 02:55:31;;;;;;;34.15;16.30;;;;;;;-0.23;92.53;95858.78;5047281;28;20032;-78
2021/01/06 02:58:04;;;;;;;32.60;17.08;;;;;;;-0.21;92.52;95861.16;5052446;28;20103;-76
2021/01/06 03:00:31;;;;;;;38.20;18.63;;;;;;;-0.22;92.50;95851.84;5050097;28;20059;-77
2021/01/06 03:02:59;;;;;;;36.83;17.15;;;;;;;-0.23;92.34;95848.47;5050102;28;20475;-76
2021/01/06 03:05:34;;;;;;;35.95;17.02;;;;;;;-0.21;92.63;95854.25;5051230;28;20048;-77
2021/01/06 03:08:01;;;;;;;37.33;17.63;;;;;;;-0.18;92.76;95850.56;5051017;28;20044;-76
2021/01/06 03:10:27;;;;;;;39.22;19.27;;;;;;;-0.15;92.90;95860.50;5034785;28;20057;-76
2021/01/06 03:12:56;;;;;;;38.10;17.80;;;;;;;-0.13;92.44;95858.56;5034201;28;20041;-79
2021/01/06 03:15:27;;;;;;;48.50;19.38;;;;;;;-0.12;92.41;95856.81;5049988;28;21211;-77
2021/01/06 03:17:54;;;;;;;39.42;17.85;;;;;;;-0.12;92.29;95849.09;5048856;28;20044;-78
2021/01/06 03:20:42;;;;;;;35.45;16.90;;;;;;;-0.11;92.37;95845.53;5045614;28;20056;-76
2021/01/06 03:23:17;;;;;;;35.10;17.20;;;;;;;-0.12;92.43;95855.03;5025487;28;20068;-76
2021/01/06 03:25:44;;;;;;;38.88;18.70;;;;;;;-0.10;92.35;95839.44;5029644;28;20052;-76
2021/01/06 03:28:13;;;;;;;39.58;19.02;;;;;;;-0.13;92.10;95843.13;5047364;28;20056;-76
2021/01/06 03:30:40;;;;;;;35.45;17.75;;;;;;;-0.12;92.16;95851.66;5052640;28;20044;-76
2021/01/06 03:33:38;;;;;;;33.83;17.13;;;;;;;-0.12;91.98;95842.16;5029169;28;20049;-78
2021/01/06 03:36:09;;;;;;;37.22;17.40;;;;;;;-0.13;91.98;95848.28;5042257;28;20044;-78
2021/01/06 03:38:56;;;;;;;32.13;16.45;;;;;;;-0.13;91.97;95837.97;5060042;28;20068;-76
2021/01/06 03:41:24;;;;;;;37.33;17.17;;;;;;;-0.16;91.98;95834.94;5042728;28;20052;-76
2021/01/06 03:43:56;;;;;;;34.55;16.02;;;;;;;-0.20;91.81;95831.88;5043216;28;20049;-77
2021/01/06 03:46:47;;;;;;;32.00;16.17;;;;;;;-0.22;91.96;95838.97;5050423;28;20036;-76
2021/01/06 03:49:45;;;;;;;34.70;16.33;;;;;;;-0.22;91.93;95833.81;5041474;28;20048;-77
2021/01/06 03:52:24;;;;;;;34.17;17.13;;;;;;;-0.23;91.83;95840.75;5040759;28;20049;-77
2021/01/06 03:55:11;;;;;;;33.83;16.70;;;;;;;-0.27;91.83;95828.38;5044194;28;20037;-76
2021/01/06 03:57:38;;;;;;;32.38;16.42;;;;;;;-0.30;91.87;95832.06;5039633;28;20041;-78
2021/01/06 04:00:32;;;;;;;32.45;16.70;;;;;;;-0.31;91.94;95833.03;5029976;28;20048;-76
2021/01/06 04:03:04;;;;;;;32.65;17.60;;;;;;;-0.31;91.98;95835.59;5044347;28;20037;-82
2021/01/06 04:05:30;;;;;;;29.17;15.68;;;;;;;-0.31;91.89;95829.66;5048742;28;20057;-77
2021/01/06 04:08:00;;;;;;;30.00;14.70;;;;;;;-0.32;92.05;95828.84;5044585;28;20071;-76
2021/01/06 04:10:31;;;;;;;30.10;15.73;;;;;;;-0.30;92.07;95834.63;5068951;28;20045;-76
2021/01/06 04:12:58;;;;;;;30.23;15.55;;;;;;;-0.29;92.12;95828.53;5071290;28;20048;-76
2021/01/06 04:15:24;;;;;;;29.23;15.82;;;;;;;-0.28;92.03;95832.69;5067551;28;20051;-76
2021/01/06 04:17:53;;;;;;;32.72;15.88;;;;;;;-0.27;91.79;95824.00;5075382;28;20047;-76
2021/01/06 04:20:36;;;;;;;31.88;16.10;;;;;;;-0.27;91.75;95818.06;5064608;28;20041;-77
2021/01/06 04:23:12;;;;;;;27.13;14.07;;;;;;;-0.26;91.68;95817.06;5078492;28;20040;-76
2021/01/06 04:25:47;;;;;;;26.85;14.43;;;;;;;-0.29;91.76;95813.06;5065263;28;20036;-76
2021/01/06 04:28:23;;;;;;;27.90;14.18;;;;;;;-0.34;91.46;95825.63;5067542;28;20416;-77
2021/01/06 04:30:53;;;;;;;28.27;14.50;;;;;;;-0.37;91.54;95823.38;5068975;28;20491;-76
2021/01/06 04:33:24;;;;;;;28.95;14.35;;;;;;;-0.39;91.75;95825.31;5063606;28;20059;-76
2021/01/06 04:35:52;;;;;;;27.17;14.82;;;;;;;-0.40;91.80;95821.13;5067082;28;20057;-76
2021/01/06 04:38:25;;;;;;;27.70;14.13;;;;;;;-0.41;91.94;95810.03;5070110;28;20055;-80
2021/01/06 04:40:56;;;;;;;25.95;15.20;;;;;;;-0.33;92.27;95823.88;5061476;28;20503;-77
2021/01/06 04:43:41;;;;;;;24.80;14.05;;;;;;;-0.26;92.07;95819.66;5065488;28;20048;-76
2021/01/06 04:46:29;;;;;;;26.48;13.73;;;;;;;-0.26;91.61;95824.81;5067884;28;20044;-77
2021/01/06 04:49:15;;;;;;;22.98;12.98;;;;;;;-0.27;91.56;95815.47;5073305;28;20047;-76
2021/01/06 04:51:41;;;;;;;22.83;12.68;;;;;;;-0.30;91.45;95823.53;5053956;28;20047;-76
2021/01/06 04:54:22;;;;;;;26.95;14.02;;;;;;;-0.29;91.67;95825.94;5067519;28;20036;-77
2021/01/06 04:57:10;;;;;;;27.20;13.65;;;;;;;-0.25;91.49;95816.13;5070915;28;20135;-79
2021/01/06 05:00:08;;;;;;;24.35;12.77;;;;;;;-0.28;91.51;95819.81;5061394;28;20041;-76
2021/01/06 05:02:56;;;;;;;24.52;13.60;;;;;;;-0.29;91.18;95813.06;5067965;28;20412;-77
2021/01/06 05:05:40;;;;;;;24.75;12.93;;;;;;;-0.29;91.41;95813.06;5057642;28;20481;-76
2021/01/06 05:08:22;;;;;;;21.85;12.63;;;;;;;-0.28;91.34;95813.84;5061077;28;20051;-76
2021/01/06 05:10:54;;;;;;;24.92;13.07;;;;;;;-0.28;91.38;95817.22;5049617;28;20048;-76
2021/01/06 05:13:45;;;;;;;24.80;13.00;;;;;;;-0.28;91.20;95814.66;5038636;28;20037;-76
2021/01/06 05:16:19;;;;;;;23.83;12.63;;;;;;;-0.26;91.47;95823.03;5047416;28;20040;-76
2021/01/06 05:18:46;;;;;;;21.08;12.13;;;;;;;-0.25;91.22;95827.22;5042469;28;20033;-76
2021/01/06 05:21:21;;;;;;;22.83;12.73;;;;;;;-0.26;91.14;95820.44;5044093;28;20056;-77
2021/01/06 05:23:51;;;;;;;23.65;13.35;;;;;;;-0.25;91.38;95821.28;5048866;28;20382;-78
2021/01/06 05:26:17;;;;;;;21.98;12.07;;;;;;;-0.26;91.17;95820.44;5019559;28;20053;-76
2021/01/06 05:28:46;;;;;;;22.65;11.75;;;;;;;-0.28;91.35;95817.22;5048553;28;20068;-76
2021/01/06 05:31:13;;;;;;;21.52;11.80;;;;;;;-0.28;91.12;95824.97;5048594;28;20049;-77
2021/01/06 05:33:43;;;;;;;18.85;11.02;;;;;;;-0.32;90.83;95828.84;5020952;28;20052;-76
2021/01/06 05:36:22;;;;;;;20.40;11.82;;;;;;;-0.33;90.89;95829.03;5051776;28;20064;-76
2021/01/06 05:38:48;;;;;;;18.55;11.23;;;;;;;-0.38;91.04;95828.69;5021510;28;20056;-79
2021/01/06 05:41:15;;;;;;;22.55;11.77;;;;;;;-0.37;91.36;95833.69;5047651;28;20052;-76
2021/01/06 05:43:50;;;;;;;18.40;11.20;;;;;;;-0.36;91.14;95837.06;5048671;28;20044;-76
2021/01/06 05:46:31;;;;;;;20.17;11.57;;;;;;;-0.36;91.18;95842.22;5034749;28;20038;-76
2021/01/06 05:49:06;;;;;;;19.83;11.48;;;;;;;-0.33;91.24;95842.69;5043491;28;20059;-76
2021/01/06 05:51:34;;;;;;;21.33;11.48;;;;;;;-0.31;91.36;95848.50;5028129;28;20056;-76
2021/01/06 05:54:06;;;;;;;17.98;10.90;;;;;;;-0.29;91.21;95843.19;5032243;28;20397;-77
2021/01/06 05:56:57;;;;;;;19.65;11.35;;;;;;;-0.33;90.87;95837.53;5013696;28;20044;-76
2021/01/06 05:59:48;;;;;;;20.75;10.77;;;;;;;-0.33;91.11;95839.31;5022223;28;20044;-76
2021/01/06 06:02:31;;;;;;;19.73;12.43;;;;;;;-0.33;90.95;95842.69;5028279;28;20389;-76
2021/01/06 06:05:30;;;;;;;19.15;10.65;;;;;;;-0.28;91.12;95844.78;5046671;28;20378;-76
2021/01/06 06:08:07;;;;;;;23.00;12.18;;;;;;;-0.32;90.87;95846.88;5032233;28;20076;-76
2021/01/06 06:11:01;;;;;;;25.98;13.32;;;;;;;-0.32;91.01;95840.91;5043912;28;20049;-76
2021/01/06 06:13:55;;;;;;;27.67;13.53;;;;;;;-0.32;90.91;95839.13;5029703;28;20045;-76
2021/01/06 06:16:39;;;;;;;26.00;13.63;;;;;;;-0.34;90.93;95841.06;5026444;28;20037;-76
2021/01/06 06:19:31;;;;;;;24.98;13.40;;;;;;;-0.35;90.90;95841.25;5045974;28;20049;-77
2021/01/06 06:22:24;;;;;;;24.42;13.18;;;;;;;-0.35;90.88;95842.06;5035155;28;20053;-77
2021/01/06 06:24:55;;;;;;;26.60;13.80;;;;;;;-0.36;90.89;95842.22;5043406;28;20113;-76
2021/01/06 06:27:33;;;;;;;28.95;14.32;;;;;;;-0.36;90.95;95843.00;5052020;28;20047;-76
2021/01/06 06:30:11;;;;;;;27.08;13.93;;;;;;;-0.36;91.09;95855.88;5023095;28;20382;-76
2021/01/06 06:32:40;;;;;;;29.13;14.52;;;;;;;-0.35;91.10;95849.78;5043279;28;20429;-78
2021/01/06 06:35:13;;;;;;;28.05;14.48;;;;;;;-0.37;90.68;95851.72;5047934;28;20409;-76
2021/01/06 06:37:48;;;;;;;28.30;13.82;;;;;;;-0.38;90.65;95854.44;5054160;28;20057;-76
2021/01/06 06:40:15;;;;;;;27.83;14.40;;;;;;;-0.39;90.75;95855.44;5044615;28;20053;-77
2021/01/06 06:42:56;;;;;;;25.23;13.55;;;;;;;-0.36;90.86;95855.09;5037964;28;20041;-77
2021/01/06 06:45:41;;;;;;;26.55;14.20;;;;;;;-0.35;90.88;95861.88;5027607;28;20421;-81
2021/01/06 06:48:17;;;;;;;24.10;13.77;;;;;;;-0.41;90.51;95863.31;5024752;28;20437;-80
2021/01/06 06:50:52;;;;;;;33.05;15.35;;;;;;;-0.42;90.81;95864.28;5057739;28;20044;-76
2021/01/06 06:53:36;;;;;;;28.08;14.38;;;;;;;-0.43;90.85;95863.47;5014811;28;20037;-80
2021/01/06 06:56:09;;;;;;;27.60;14.52;;;;;;;-0.44;90.85;95869.59;5045171;28;20049;-79
2021/01/06 06:58:47;;;;;;;32.83;16.23;;;;;;;-0.45;90.86;95864.63;5032444;28;20397;-76
2021/01/06 07:01:17;;;;;;;28.60;14.55;;;;;;;-0.46;90.79;95865.59;5048414;28;20060;-77
2021/01/06 07:03:53;;;;;;;28.75;15.13;;;;;;;-0.48;90.81;95862.38;5028411;28;20036;-76
2021/01/06 07:06:20;;;;;;;30.67;14.07;;;;;;;-0.48;90.96;95864.94;5050038;28;20398;-77
2021/01/06 07:08:49;;;;;;;25.27;13.60;;;;;;;-0.50;90.95;95869.47;5043377;28;20052;-78
2021/01/06 07:11:24;;;;;;;25.63;13.45;;;;;;;-0.52;90.88;95866.25;5068863;28;20048;-76
2021/01/06 07:13:56;;;;;;;25.30;13.45;;;;;;;-0.51;91.16;95860.09;5068109;28;20041;-77
2021/01/06 07:16:33;;;;;;;27.75;14.80;;;;;;;-0.51;91.01;95865.25;5064891;28;20527;-76
2021/01/06 07:19:25;;;;;;;24.63;13.25;;;;;;;-0.50;90.92;95865.09;5067998;28;20386;-78
2021/01/06 07:22:28;;;;;;;25.27;12.50;;;;;;;-0.54;90.82;95868.97;5072388;28;20059;-76
2021/01/06 07:25:16;;;;;;;26.52;12.85;;;;;;;-0.55;90.73;95874.28;5071438;28;20048;-77
2021/01/06 07:27:44;;;;;;;22.88;12.60;;;;;;;-0.56;90.83;95875.25;5064800;28;20092;-76
2021/01/06 07:30:25;;;;;;;26.95;14.40;;;;;;;-0.55;90.95;95877.66;5068097;28;20485;-77
2021/01/06 07:32:52;;;;;;;27.00;14.27;;;;;;;-0.54;90.82;95886.19;5066959;28;20504;-76
2021/01/06 07:35:25;;;;;;;28.42;14.43;;;;;;;-0.53;90.85;95892.94;5067984;28;20047;-83
2021/01/06 07:37:59;;;;;;;26.92;13.45;;;;;;;-0.55;90.80;95895.69;5061068;28;20413;-76
2021/01/06 07:40:38;;;;;;;24.80;13.13;;;;;;;-0.55;90.83;95894.88;5065851;28;20040;-76
2021/01/06 07:43:18;;;;;;;22.45;12.48;;;;;;;-0.56;90.80;95896.66;5061762;28;20291;-83
2021/01/06 07:46:00;;;;;;;24.00;12.90;;;;;;;-0.54;90.88;95892.16;5072695;28;20049;-76
2021/01/06 07:48:45;;;;;;;23.90;13.02;;;;;;;-0.56;90.77;95895.84;5065591;28;20489;-77
2021/01/06 07:51:17;;;;;;;24.60;12.88;;;;;;;-0.57;91.05;95897.59;5062634;28;20048;-77
2021/01/06 07:54:08;;;;;;;23.00;12.63;;;;;;;-0.57;91.04;95905.34;5058333;28;20044;-76
2021/01/06 07:57:03;;;;;;;23.73;12.98;;;;;;;-0.59;90.81;95909.03;5054672;28;20036;-76
2021/01/06 07:59:47;;;;;;;21.13;11.55;;;;;;;-0.57;90.80;95917.41;5063307;28;20045;-77
2021/01/06 08:02:20;;;;;;;29.23;13.70;;;;;;;-0.57;90.76;95917.41;5071218;28;20044;-76
2021/01/06 08:04:56;;;;;;;25.85;13.95;;;;;;;-0.57;91.02;95923.34;5067981;28;20040;-77
2021/01/06 08:07:24;;;;;;;36.40;18.90;;;;;;;-0.58;90.70;95915.81;5067000;28;20048;-76
2021/01/06 08:09:54;;;;;;;38.33;20.92;;;;;;;-0.58;91.24;95918.41;5049493;28;20056;-77
2021/01/06 08:12:42;;;;;;;284.33;167.65;;;;;;;-0.58;91.28;95919.19;5049367;28;20052;-76
2021/01/06 08:15:17;;;;;;;131.32;78.82;;;;;;;-0.55;91.29;95920.63;5052455;28;20095;-78
2021/01/06 08:18:08;;;;;;;48.00;28.30;;;;;;;-0.54;91.25;95917.09;5049708;28;20051;-77
2021/01/06 08:20:40;;;;;;;109.03;67.40;;;;;;;-0.55;91.20;95920.63;5048657;28;20041;-77
2021/01/06 08:23:28;;;;;;;139.77;89.53;;;;;;;-0.55;91.14;95916.28;5034938;28;20041;-77
2021/01/06 08:26:23;;;;;;;70.75;42.63;;;;;;;-0.57;91.32;95922.56;5053142;28;20041;-77
2021/01/06 08:28:49;;;;;;;49.97;27.77;;;;;;;-0.56;91.26;95929.34;5038555;28;20413;-79
2021/01/06 08:31:21;;;;;;;43.67;25.38;;;;;;;-0.55;91.30;95921.44;5017797;28;20048;-77
2021/01/06 08:33:50;;;;;;;35.28;20.75;;;;;;;-0.51;91.21;95921.91;5048182;28;20048;-77
2021/01/06 08:36:23;;;;;;;36.72;24.17;;;;;;;-0.45;91.62;95922.06;5040376;28;20042;-77
2021/01/06 08:39:09;;;;;;;38.72;24.42;;;;;;;-0.37;91.32;95923.84;5051627;28;20397;-78
2021/01/06 08:41:35;;;;;;;34.33;19.80;;;;;;;-0.34;90.94;95920.94;5053157;28;20043;-77
2021/01/06 08:44:05;;;;;;;35.85;22.77;;;;;;;-0.33;91.01;95929.50;5052779;28;20037;-77
2021/01/06 08:46:34;;;;;;;28.50;15.48;;;;;;;-0.28;90.92;95928.00;5052515;28;20366;-77
2021/01/06 08:49:25;;;;;;;32.58;16.00;;;;;;;-0.23;90.66;95928.34;5032089;28;20045;-77
2021/01/06 08:52:08;;;;;;;35.47;21.05;;;;;;;-0.17;90.63;95932.03;5022699;28;20029;-77
2021/01/06 08:54:35;;;;;;;31.02;17.33;;;;;;;-0.16;90.39;95933.66;5051637;28;20057;-77
2021/01/06 08:57:19;;;;;;;28.80;14.95;;;;;;;0.30;99.25;95935.66;5048973;28;20052;-77
2021/01/06 08:59:45;;;;;;;27.40;14.63;;;;;;;0.88;100.00;95929.25;5049636;28;20382;-77
2021/01/06 09:02:26;;;;;;;24.92;13.63;;;;;;;1.29;100.00;95928.22;5050625;28;20049;-77
2021/01/06 09:04:52;;;;;;;27.40;14.30;;;;;;;1.41;94.29;95922.47;5047061;28;20043;-77
2021/01/06 09:07:25;;;;;;;24.92;13.77;;;;;;;1.34;90.36;95920.75;5050017;28;20041;-77
2021/01/06 09:09:57;;;;;;;24.85;13.57;;;;;;;1.18;89.11;95932.81;5046173;28;20041;-80
2021/01/06 09:13:02;;;;;;;31.25;16.20;;;;;;;1.05;88.75;95934.34;5032834;28;20489;-77
2021/01/06 09:15:34;;;;;;;26.23;14.77;;;;;;;0.94;88.82;95938.09;5048062;28;20057;-78
2021/01/06 09:18:12;;;;;;;31.73;16.17;;;;;;;0.85;88.67;95941.72;5026879;28;20059;-77
2021/01/06 09:20:59;;;;;;;30.55;15.70;;;;;;;0.77;88.64;95939.97;5048709;28;20044;-77
2021/01/06 09:23:26;;;;;;;31.95;16.02;;;;;;;0.71;88.80;95944.03;5049245;28;20049;-78
2021/01/06 09:25:53;;;;;;;30.67;15.80;;;;;;;0.67;88.63;95952.28;5031749;28;20116;-76
2021/01/06 09:28:20;;;;;;;28.33;15.20;;;;;;;0.64;88.87;95947.47;5033449;28;20060;-77
2021/01/06 09:30:48;;;;;;;22.58;13.70;;;;;;;0.62;88.88;95954.56;5013022;28;20057;-77
2021/01/06 09:33:22;;;;;;;25.60;14.43;;;;;;;0.56;88.74;95956.81;5024247;28;20040;-79
2021/01/06 09:35:49;;;;;;;26.13;14.68;;;;;;;0.53;88.97;95964.91;5031650;28;20500;-78
2021/01/06 09:38:27;;;;;;;23.08;13.57;;;;;;;0.53;89.05;95961.53;5046883;28;20044;-77
2021/01/06 09:40:58;;;;;;;23.67;13.65;;;;;;;0.56;88.98;95966.34;5030198;28;20144;-79
2021/01/06 09:43:33;;;;;;;23.70;13.25;;;;;;;0.59;88.99;95966.03;5024955;28;20033;-78
2021/01/06 09:46:00;;;;;;;21.52;12.65;;;;;;;0.62;89.08;95970.03;5047166;28;20049;-77
2021/01/06 09:48:26;;;;;;;23.45;13.10;;;;;;;0.64;88.93;95960.34;5026180;28;20049;-78
2021/01/06 09:50:55;;;;;;;25.83;14.38;;;;;;;0.63;88.94;95961.31;5031478;28;20477;-78
2021/01/06 09:53:25;;;;;;;21.00;12.13;;;;;;;0.62;88.80;95957.13;5034595;28;20473;-78
2021/01/06 09:55:54;;;;;;;20.77;12.40;;;;;;;0.58;88.34;95960.03;5013765;28;20029;-77
2021/01/06 09:58:35;;;;;;;21.50;12.23;;;;;;;0.57;88.52;95955.06;5034751;28;20036;-77
2021/01/06 10:01:08;;;;;;;19.02;11.68;;;;;;;0.56;88.57;95959.41;5052986;28;20033;-77
2021/01/06 10:03:38;;;;;;;18.20;10.63;;;;;;;0.54;88.38;95951.03;5054178;28;20045;-77
2021/01/06 10:06:04;;;;;;;18.77;10.82;;;;;;;0.53;88.50;95953.78;5055481;28;20040;-77
2021/01/06 10:08:41;;;;;;;21.55;12.65;;;;;;;0.52;88.17;95958.13;5044893;28;20041;-77
2021/01/06 10:11:25;;;;;;;20.83;11.90;;;;;;;0.50;88.27;95951.53;5053093;28;20037;-77
2021/01/06 10:14:30;;;;;;;18.02;10.18;;;;;;;0.50;87.90;95952.31;5075715;28;20055;-78
2021/01/06 10:17:08;;;;;;;16.60;10.40;;;;;;;0.49;88.09;95955.09;5055346;28;20048;-77
2021/01/06 10:19:40;;;;;;;18.23;11.15;;;;;;;0.52;88.05;95957.34;5073849;28;20476;-78
2021/01/06 10:22:18;;;;;;;17.08;10.70;;;;;;;0.52;88.10;95955.53;5073848;28;20048;-77
2021/01/06 10:25:11;;;;;;;18.45;10.95;;;;;;;0.57;88.04;95947.31;5073950;28;20048;-77
2021/01/06 10:27:51;;;;;;;16.67;10.48;;;;;;;0.60;88.26;95952.13;5076273;28;20048;-77
2021/01/06 10:30:21;;;;;;;17.08;11.05;;;;;;;0.60;88.07;95955.50;5073730;28;20028;-77
2021/01/06 10:33:11;;;;;;;17.15;10.50;;;;;;;0.57;87.92;95944.75;5075310;28;20047;-77
2021/01/06 10:35:45;;;;;;;18.52;10.65;;;;;;;0.57;87.88;95957.66;5075465;28;20055;-77
2021/01/06 10:38:24;;;;;;;19.05;11.13;;;;;;;0.59;88.18;95953.13;5072570;28;20060;-77
2021/01/06 10:41:13;;;;;;;22.20;12.40;;;;;;;0.59;87.69;95942.81;5073469;28;20041;-77
2021/01/06 10:43:42;;;;;;;18.75;11.23;;;;;;;0.63;88.08;95951.81;5075444;28;20044;-77
2021/01/06 10:46:36;;;;;;;19.52;11.90;;;;;;;0.62;87.35;95939.88;5070165;28;20503;-77
2021/01/06 10:49:06;;;;;;;19.02;11.10;;;;;;;0.61;87.65;95938.28;5066447;28;20461;-77
2021/01/06 10:51:57;;;;;;;18.42;11.07;;;;;;;0.59;87.05;95941.03;5070691;28;20055;-79
2021/01/06 10:54:32;;;;;;;19.60;11.23;;;;;;;0.58;87.60;95943.75;5070611;28;20033;-78
2021/01/06 10:57:00;;;;;;;20.33;12.40;;;;;;;0.55;87.76;95933.78;5069269;28;20036;-77
2021/01/06 10:59:26;;;;;;;20.50;12.18;;;;;;;0.53;87.77;95939.13;5073818;28;20405;-77
2021/01/06 11:02:34;;;;;;;20.05;11.48;;;;;;;0.52;87.36;95934.09;5074103;28;20045;-78
2021/01/06 11:05:10;;;;;;;19.63;12.35;;;;;;;0.49;87.41;95939.63;5063209;28;20436;-77
2021/01/06 11:08:01;;;;;;;21.65;12.32;;;;;;;0.49;87.59;95939.63;5073256;28;20049;-77
2021/01/06 11:10:52;;;;;;;20.83;11.82;;;;;;;0.53;87.80;95933.16;5071755;28;20392;-77
2021/01/06 11:13:37;;;;;;;22.35;13.73;;;;;;;0.56;87.62;95938.75;5064406;28;20052;-77
2021/01/06 11:16:23;;;;;;;22.73;12.40;;;;;;;0.58;87.23;95939.41;5055156;28;20036;-77
2021/01/06 11:18:53;;;;;;;21.60;13.13;;;;;;;0.59;87.54;95940.22;5073293;28;20036;-77
2021/01/06 11:21:22;;;;;;;20.40;12.27;;;;;;;0.62;87.75;95939.06;5073279;28;20048;-77
2021/01/06 11:23:54;;;;;;;20.05;12.25;;;;;;;0.65;87.36;95936.97;5056498;28;20479;-78
2021/01/06 11:26:20;;;;;;;19.70;11.98;;;;;;;0.63;87.14;95927.78;5073260;28;20047;-77
2021/01/06 11:29:01;;;;;;;19.02;11.70;;;;;;;0.64;87.10;95925.03;5074551;28;20040;-77
2021/01/06 11:31:30;;;;;;;23.33;13.23;;;;;;;0.66;87.27;95924.88;5068745;28;20401;-77
2021/01/06 11:34:29;;;;;;;26.88;15.50;;;;;;;0.68;87.21;95925.50;5071462;28;20045;-77
2021/01/06 11:37:34;;;;;;;139.57;69.30;;;;;;;0.73;87.05;95921.44;5073165;28;20040;-77
2021/01/06 11:44:16;;;;;;;67.88;33.78;;;;;;;0.87;86.93;95913.97;5020185;28;20040;-77
2021/01/06 11:47:20;;;;;;;60.72;30.67;;;;;;;0.92;87.23;95921.97;5072965;28;20043;-77
2021/01/06 11:50:36;;;;;;;30.27;17.13;;;;;;;0.94;86.51;95915.66;5063499;28;20044;-77
2021/01/06 11:53:16;;;;;;;25.98;16.27;;;;;;;0.96;86.58;95913.72;5059663;28;20048;-77
2021/01/06 11:55:48;;;;;;;35.08;20.05;;;;;;;1.00;86.75;95920.16;5070544;28;20047;-77
2021/01/06 11:58:30;;;;;;;41.22;25.00;;;;;;;1.02;86.38;95915.63;5059244;28;20396;-77
2021/01/06 12:01:14;;;;;;;18.73;11.77;;;;;;;1.09;86.33;95912.34;5073867;28;20032;-77
2021/01/06 12:04:04;;;;;;;21.05;12.40;;;;;;;1.09;86.49;95918.34;5069389;28;20483;-77
2021/01/06 12:06:56;;;;;;;18.08;11.93;;;;;;;1.05;85.56;95916.25;5068639;28;20041;-77
2021/01/06 12:10:00;;;;;;;18.13;11.02;;;;;;;0.96;85.93;95916.31;5044880;28;20765;-77
2021/01/06 12:12:47;;;;;;;18.45;11.77;;;;;;;0.90;85.75;95916.97;5049109;28;20444;-77